Eastern Galaxy — DUCH — position and weather

sailwx.info

Track history (hours):
 
Tides and Currents Weather Stations Pressure Air Temp Water Temp Dewpoint Dewpoint Depression Visibility Wind Speed Wind Dir Waves Ship Positions

Eastern Galaxy

Last reported at 2016-Jul-21 17:33 UTC. Time now 2016-Jul-28 12:23 UTC.
Position N 33°60' E 134°57'.

Length 100 m; draft 7.3 m.

Type: Cargo ship. MMSI: 548829000.

Date/timePositionNaut miles runAvg speedWind from/ knotsBaromVisibWave heightAir tempDewpointWater temp
2016-Jul-21 17:33N 33°60' E 134°57'1211.9
2016-Jul-21 16:34N 34°11' E 134°58'1211.7
2016-Jul-21 15:33N 34°23' E 135°02'1212.0
2016-Jul-21 14:33N 34°31' E 135°13'1111.3
2016-Jul-21 13:33N 34°38' E 135°23'3 2.5
2016-Jul-21 12:33N 34°39' E 135°26'0 0.0
2016-Jul-21 11:33N 34°39' E 135°26'0 0.0
2016-Jul-21 10:21N 34°39' E 135°26'0 0.0
2016-Jul-21 09:33N 34°39' E 135°26'0 0.0
2016-Jul-21 08:33N 34°39' E 135°26'0 0.0
2016-Jul-21 07:27N 34°39' E 135°26'0 0.0
2016-Jul-21 06:33N 34°39' E 135°26'0 0.0
2016-Jul-21 05:33N 34°39' E 135°26'0 0.0
2016-Jul-21 04:33N 34°39' E 135°26'0 0.0
2016-Jul-21 03:33N 34°39' E 135°26'0 0.0
2016-Jul-21 02:33N 34°39' E 135°26'0 0.0
2016-Jul-21 01:33N 34°39' E 135°26'0 0.0
2016-Jul-21 00:33N 34°39' E 135°26'0 0.0
2016-Jul-20 23:33N 34°39' E 135°26'0 0.3
2016-Jul-20 22:34N 34°39' E 135°25'4 4.5
2016-Jul-20 21:34N 34°36' E 135°21'0 0.2
2016-Jul-20 20:31N 34°36' E 135°21'0 0.0
2016-Jul-20 19:25N 34°36' E 135°21'0 0.0
2016-Jul-20 18:31N 34°36' E 135°21'0 0.1
2016-Jul-20 17:31N 34°36' E 135°21'0 0.0
2016-Jul-20 16:31N 34°36' E 135°21'0 0.1
2016-Jul-20 15:33N 34°36' E 135°21'2 1.8
2016-Jul-20 14:33N 34°35' E 135°20'9 9.4
2016-Jul-20 13:33N 34°28' E 135°12'1111.1
2016-Jul-20 12:33N 34°20' E 135°02'1212.3
2016-Jul-20 11:34N 34°08' E 134°60'223 9.7
2016-Jul-19 12:33N 34°56' E 139°24'1211.2
2016-Jul-19 11:26N 35°03' E 139°37'910.7
2016-Jul-19 10:34N 35°09' E 139°45'1110.9
2016-Jul-19 09:33N 35°20' E 139°42'7 7.0
2016-Jul-19 08:32N 35°27' E 139°41'0 0.0
2016-Jul-19 07:32N 35°27' E 139°41'0 0.0
2016-Jul-19 04:32N 35°27' E 139°41'0 0.0
2016-Jul-19 03:32N 35°27' E 139°41'0 0.0
2016-Jul-19 02:32N 35°27' E 139°41'0 0.0
2016-Jul-19 01:32N 35°27' E 139°41'0 0.0
2016-Jul-19 00:32N 35°27' E 139°41'0 0.0
2016-Jul-18 23:32N 35°27' E 139°41'0 0.0
2016-Jul-18 22:32N 35°27' E 139°41'0 0.0
2016-Jul-18 21:32N 35°27' E 139°41'0 0.0
2016-Jul-18 20:32N 35°27' E 139°41'0 0.0
2016-Jul-18 19:32N 35°27' E 139°41'0 0.0
2016-Jul-18 18:32N 35°27' E 139°41'0 0.0
2016-Jul-18 17:32N 35°27' E 139°41'0 0.0
2016-Jul-18 16:32N 35°27' E 139°41'0 0.0
2016-Jul-18 15:32N 35°27' E 139°41'0 0.0
2016-Jul-18 14:32N 35°27' E 139°41'0 0.0
2016-Jul-18 13:32N 35°27' E 139°41'0 0.0
2016-Jul-18 12:32N 35°27' E 139°41'0 0.0
2016-Jul-18 11:32N 35°27' E 139°41'0 0.0
2016-Jul-18 10:32N 35°27' E 139°41'0 0.0
2016-Jul-18 09:32N 35°27' E 139°41'0 0.0
2016-Jul-18 08:32N 35°27' E 139°41'0 0.0
2016-Jul-18 07:32N 35°27' E 139°41'0 0.0
2016-Jul-18 06:32N 35°27' E 139°41'1 0.7
2016-Jul-18 05:33N 35°27' E 139°42'1 1.1
2016-Jul-18 04:32N 35°25' E 139°42'0 0.0
2016-Jul-18 03:32N 35°26' E 139°42'0 0.0
2016-Jul-18 02:32N 35°25' E 139°42'0 0.0
2016-Jul-18 01:32N 35°25' E 139°42'0 0.0
2016-Jul-18 00:29N 35°25' E 139°42'0 0.1
2016-Jul-17 23:32N 35°25' E 139°42'0 0.0
2016-Jul-17 22:32N 35°25' E 139°42'0 0.0
2016-Jul-17 21:32N 35°25' E 139°42'0 0.0
2016-Jul-17 20:32N 35°25' E 139°42'0 0.0
2016-Jul-17 19:32N 35°25' E 139°42'0 0.0
2016-Jul-17 18:32N 35°25' E 139°42'0 0.0
2016-Jul-17 17:32N 35°25' E 139°42'0 0.1
2016-Jul-17 16:32N 35°25' E 139°42'0 0.0
2016-Jul-17 15:32N 35°26' E 139°42'0 0.0
2016-Jul-17 14:32N 35°26' E 139°42'0 0.1
2016-Jul-17 13:32N 35°25' E 139°42'0 0.1
2016-Jul-17 12:32N 35°25' E 139°42'0 0.0
2016-Jul-17 11:32N 35°25' E 139°42'0 0.0
2016-Jul-17 10:32N 35°25' E 139°42'0 0.1
2016-Jul-17 09:32N 35°26' E 139°42'0 0.0
2016-Jul-17 08:29N 35°25' E 139°42'0 0.0
2016-Jul-17 07:32N 35°25' E 139°42'0 0.1
2016-Jul-17 06:32N 35°26' E 139°42'0 0.0
2016-Jul-17 04:32N 35°26' E 139°42'0 0.0
2016-Jul-17 03:32N 35°26' E 139°42'0 0.0
2016-Jul-17 02:32N 35°26' E 139°42'0 0.0
2016-Jul-17 01:32N 35°26' E 139°42'0 0.0
2016-Jul-17 00:32N 35°26' E 139°42'0 0.0
2016-Jul-16 23:33N 35°26' E 139°42'0 0.1
2016-Jul-16 22:34N 35°25' E 139°42'4 4.2
2016-Jul-16 21:33N 35°21' E 139°43'10 9.7
2016-Jul-16 20:33N 35°12' E 139°47'1211.5
2016-Jul-16 19:30N 35°01' E 139°40'7 6.3
2016-Jul-16 18:19N 34°55' E 139°35'6 8.6
2016-Jul-16 17:33N 34°54' E 139°27'  
Track history (hours):
 
Tides and Currents Weather Stations Pressure Air Temp Water Temp Dewpoint Dewpoint Depression Visibility Wind Speed Wind Dir Waves Ship Positions

Eastern Galaxy

Last reported at 2016-Jul-21 17:33 UTC. Time now 2016-Jul-28 12:23 UTC.
Position N 33°60' E 134°57'.

Length 100 m; draft 7.3 m.

Type: Cargo ship. MMSI: 548829000.

Date/timePositionNaut miles runAvg speedWind from/ knotsBaromVisibWave heightAir tempDewpointWater temp
2016-Jul-21 17:33N 33°60' E 134°57'1211.9
2016-Jul-21 16:34N 34°11' E 134°58'1211.7
2016-Jul-21 15:33N 34°23' E 135°02'1212.0
2016-Jul-21 14:33N 34°31' E 135°13'1111.3
2016-Jul-21 13:33N 34°38' E 135°23'3 2.5
2016-Jul-21 12:33N 34°39' E 135°26'0 0.0
2016-Jul-21 11:33N 34°39' E 135°26'0 0.0
2016-Jul-21 10:21N 34°39' E 135°26'0 0.0
2016-Jul-21 09:33N 34°39' E 135°26'0 0.0
2016-Jul-21 08:33N 34°39' E 135°26'0 0.0
2016-Jul-21 07:27N 34°39' E 135°26'0 0.0
2016-Jul-21 06:33N 34°39' E 135°26'0 0.0
2016-Jul-21 05:33N 34°39' E 135°26'0 0.0
2016-Jul-21 04:33N 34°39' E 135°26'0 0.0
2016-Jul-21 03:33N 34°39' E 135°26'0 0.0
2016-Jul-21 02:33N 34°39' E 135°26'0 0.0
2016-Jul-21 01:33N 34°39' E 135°26'0 0.0
2016-Jul-21 00:33N 34°39' E 135°26'0 0.0
2016-Jul-20 23:33N 34°39' E 135°26'0 0.3
2016-Jul-20 22:34N 34°39' E 135°25'4 4.5
2016-Jul-20 21:34N 34°36' E 135°21'0 0.2
2016-Jul-20 20:31N 34°36' E 135°21'0 0.0
2016-Jul-20 19:25N 34°36' E 135°21'0 0.0
2016-Jul-20 18:31N 34°36' E 135°21'0 0.1
2016-Jul-20 17:31N 34°36' E 135°21'0 0.0
2016-Jul-20 16:31N 34°36' E 135°21'0 0.1
2016-Jul-20 15:33N 34°36' E 135°21'2 1.8
2016-Jul-20 14:33N 34°35' E 135°20'9 9.4
2016-Jul-20 13:33N 34°28' E 135°12'1111.1
2016-Jul-20 12:33N 34°20' E 135°02'1212.3
2016-Jul-20 11:34N 34°08' E 134°60'223 9.7
2016-Jul-19 12:33N 34°56' E 139°24'1211.2
2016-Jul-19 11:26N 35°03' E 139°37'910.7
2016-Jul-19 10:34N 35°09' E 139°45'1110.9
2016-Jul-19 09:33N 35°20' E 139°42'7 7.0
2016-Jul-19 08:32N 35°27' E 139°41'0 0.0
2016-Jul-19 07:32N 35°27' E 139°41'0 0.0
2016-Jul-19 04:32N 35°27' E 139°41'0 0.0
2016-Jul-19 03:32N 35°27' E 139°41'0 0.0
2016-Jul-19 02:32N 35°27' E 139°41'0 0.0
2016-Jul-19 01:32N 35°27' E 139°41'0 0.0
2016-Jul-19 00:32N 35°27' E 139°41'0 0.0
2016-Jul-18 23:32N 35°27' E 139°41'0 0.0
2016-Jul-18 22:32N 35°27' E 139°41'0 0.0
2016-Jul-18 21:32N 35°27' E 139°41'0 0.0
2016-Jul-18 20:32N 35°27' E 139°41'0 0.0
2016-Jul-18 19:32N 35°27' E 139°41'0 0.0
2016-Jul-18 18:32N 35°27' E 139°41'0 0.0
2016-Jul-18 17:32N 35°27' E 139°41'0 0.0
2016-Jul-18 16:32N 35°27' E 139°41'0 0.0
2016-Jul-18 15:32N 35°27' E 139°41'0 0.0
2016-Jul-18 14:32N 35°27' E 139°41'0 0.0
2016-Jul-18 13:32N 35°27' E 139°41'0 0.0
2016-Jul-18 12:32N 35°27' E 139°41'0 0.0
2016-Jul-18 11:32N 35°27' E 139°41'0 0.0
2016-Jul-18 10:32N 35°27' E 139°41'0 0.0
2016-Jul-18 09:32N 35°27' E 139°41'0 0.0
2016-Jul-18 08:32N 35°27' E 139°41'0 0.0
2016-Jul-18 07:32N 35°27' E 139°41'0 0.0
2016-Jul-18 06:32N 35°27' E 139°41'1 0.7
2016-Jul-18 05:33N 35°27' E 139°42'1 1.1
2016-Jul-18 04:32N 35°25' E 139°42'0 0.0
2016-Jul-18 03:32N 35°26' E 139°42'0 0.0
2016-Jul-18 02:32N 35°25' E 139°42'0 0.0
2016-Jul-18 01:32N 35°25' E 139°42'0 0.0
2016-Jul-18 00:29N 35°25' E 139°42'0 0.1
2016-Jul-17 23:32N 35°25' E 139°42'0 0.0
2016-Jul-17 22:32N 35°25' E 139°42'0 0.0
2016-Jul-17 21:32N 35°25' E 139°42'0 0.0
2016-Jul-17 20:32N 35°25' E 139°42'0 0.0
2016-Jul-17 19:32N 35°25' E 139°42'0 0.0
2016-Jul-17 18:32N 35°25' E 139°42'0 0.0
2016-Jul-17 17:32N 35°25' E 139°42'0 0.1
2016-Jul-17 16:32N 35°25' E 139°42'0 0.0
2016-Jul-17 15:32N 35°26' E 139°42'0 0.0
2016-Jul-17 14:32N 35°26' E 139°42'0 0.1
2016-Jul-17 13:32N 35°25' E 139°42'0 0.1
2016-Jul-17 12:32N 35°25' E 139°42'0 0.0
2016-Jul-17 11:32N 35°25' E 139°42'0 0.0
2016-Jul-17 10:32N 35°25' E 139°42'0 0.1
2016-Jul-17 09:32N 35°26' E 139°42'0 0.0
2016-Jul-17 08:29N 35°25' E 139°42'0 0.0
2016-Jul-17 07:32N 35°25' E 139°42'0 0.1
2016-Jul-17 06:32N 35°26' E 139°42'0 0.0
2016-Jul-17 04:32N 35°26' E 139°42'0 0.0
2016-Jul-17 03:32N 35°26' E 139°42'0 0.0
2016-Jul-17 02:32N 35°26' E 139°42'0 0.0
2016-Jul-17 01:32N 35°26' E 139°42'0 0.0
2016-Jul-17 00:32N 35°26' E 139°42'0 0.0
2016-Jul-16 23:33N 35°26' E 139°42'0 0.1
2016-Jul-16 22:34N 35°25' E 139°42'4 4.2
2016-Jul-16 21:33N 35°21' E 139°43'10 9.7
2016-Jul-16 20:33N 35°12' E 139°47'1211.5
2016-Jul-16 19:30N 35°01' E 139°40'7 6.3
2016-Jul-16 18:19N 34°55' E 139°35'6 8.6
2016-Jul-16 17:33N 34°54' E 139°27'  

Dump ship's entire track history